createdAt,value
2019-01-17T00:00:49.562Z,41.70
2019-01-17T00:03:26.784Z,41.70
2019-01-17T00:06:03.765Z,41.70
2019-01-17T00:08:51.789Z,41.70
2019-01-17T00:11:51.817Z,41.80
2019-01-17T00:14:38.441Z,41.80
2019-01-17T00:17:41.649Z,41.90
2019-01-17T00:20:29.598Z,41.90
2019-01-17T00:23:16.475Z,42.00
2019-01-17T00:26:07.284Z,42.00
2019-01-17T00:28:59.376Z,42.00
2019-01-17T00:31:47.468Z,42.00
2019-01-17T00:34:39.466Z,42.00
2019-01-17T00:37:19.606Z,42.00
2019-01-17T00:40:07.718Z,42.00
2019-01-17T00:43:07.643Z,42.00
2019-01-17T00:46:13.734Z,41.90
2019-01-17T00:48:52.148Z,41.90
2019-01-17T00:51:46.099Z,41.90
2019-01-17T00:54:34.189Z,41.90
2019-01-17T00:57:22.277Z,41.70
2019-01-17T01:00:25.529Z,41.70
2019-01-17T01:03:03.314Z,41.70
2019-01-17T01:05:50.037Z,41.70
2019-01-17T01:08:36.857Z,41.70
2019-01-17T01:11:24.933Z,41.60
2019-01-17T01:14:18.785Z,41.60
2019-01-17T01:17:01.568Z,41.60
2019-01-17T01:19:52.476Z,41.50
2019-01-17T01:22:34.436Z,41.50
2019-01-17T01:25:16.462Z,41.40
2019-01-17T01:28:07.570Z,41.40
2019-01-17T01:30:47.682Z,41.50
2019-01-17T01:33:34.037Z,41.50
2019-01-17T01:36:20.798Z,41.40
2019-01-17T01:39:07.573Z,41.30
2019-01-17T01:41:59.285Z,41.30
2019-01-17T01:44:56.281Z,41.30
2019-01-17T01:48:02.509Z,41.20
2019-01-17T01:50:50.573Z,41.20
2019-01-17T01:53:19.597Z,41.20
2019-01-17T01:55:48.638Z,41.20
2019-01-17T01:58:17.673Z,41.80
2019-01-17T02:00:46.717Z,41.10
2019-01-17T02:03:15.824Z,41.10
2019-01-17T02:05:44.848Z,41.10
2019-01-17T02:08:13.868Z,41.00
2019-01-17T02:10:42.913Z,41.00
2019-01-17T02:13:11.926Z,41.00
2019-01-17T02:15:40.889Z,41.00
2019-01-17T02:18:09.900Z,41.00
2019-01-17T02:20:38.934Z,41.00
2019-01-17T02:23:07.958Z,41.00
2019-01-17T02:25:36.993Z,41.00
2019-01-17T02:28:06.036Z,40.90
2019-01-17T02:30:35.068Z,41.00
2019-01-17T02:33:04.094Z,40.90
2019-01-17T02:35:33.119Z,40.90
2019-01-17T02:38:02.154Z,40.90
2019-01-17T02:40:31.173Z,40.90
2019-01-17T02:43:00.221Z,40.80
2019-01-17T02:45:29.233Z,40.80
2019-01-17T02:47:58.258Z,40.80
2019-01-17T02:50:27.359Z,40.90
2019-01-17T02:52:56.385Z,40.90
2019-01-17T02:55:25.390Z,40.90
2019-01-17T02:57:54.413Z,40.90
2019-01-17T03:00:23.423Z,40.90
2019-01-17T03:02:52.448Z,41.00
2019-01-17T03:05:21.465Z,40.90
2019-01-17T03:07:50.477Z,40.90
2019-01-17T03:10:19.510Z,40.90
2019-01-17T03:12:48.527Z,41.00
2019-01-17T03:15:17.570Z,40.90
2019-01-17T03:17:46.583Z,40.90
2019-01-17T03:20:15.607Z,40.90
2019-01-17T03:22:44.728Z,40.90
2019-01-17T03:25:13.768Z,41.00
2019-01-17T03:27:42.783Z,41.00
2019-01-17T03:30:17.203Z,40.90
2019-01-17T03:32:46.810Z,40.90
2019-01-17T03:35:15.815Z,41.00
2019-01-17T03:37:44.853Z,41.10
2019-01-17T03:40:15.986Z,41.10
2019-01-17T03:42:45.241Z,41.10
2019-01-17T03:45:14.747Z,41.10
2019-01-17T03:47:43.830Z,41.10
2019-01-17T03:50:14.713Z,41.20
2019-01-17T03:52:44.067Z,41.20
2019-01-17T03:55:15.471Z,41.20
2019-01-17T03:57:44.392Z,41.20
2019-01-17T04:00:16.132Z,41.20
2019-01-17T04:02:45.160Z,41.20
2019-01-17T04:05:14.177Z,41.20
2019-01-17T04:07:43.213Z,41.20
2019-01-17T04:10:13.009Z,41.20
2019-01-17T04:12:42.032Z,41.20
2019-01-17T04:15:11.116Z,41.20
2019-01-17T04:17:40.136Z,41.20
2019-01-17T04:20:12.021Z,41.20
2019-01-17T04:22:41.047Z,41.20
2019-01-17T04:25:10.102Z,41.20
2019-01-17T04:27:39.139Z,41.20
2019-01-17T04:30:16.858Z,41.20
2019-01-17T04:32:45.886Z,41.20
2019-01-17T04:35:14.908Z,41.20
2019-01-17T04:37:43.928Z,41.20
2019-01-17T04:40:13.597Z,41.20
2019-01-17T04:42:42.549Z,41.20
2019-01-17T04:45:12.553Z,41.10
2019-01-17T04:47:41.568Z,41.10
2019-01-17T04:50:11.949Z,41.20
2019-01-17T04:52:41.005Z,41.20
2019-01-17T04:55:11.220Z,41.20
2019-01-17T04:57:40.232Z,41.90
2019-01-17T05:00:12.808Z,41.20
2019-01-17T05:02:41.821Z,41.20
2019-01-17T05:05:11.027Z,41.90
2019-01-17T05:07:40.056Z,41.20
2019-01-17T05:10:09.779Z,41.30
2019-01-17T05:12:38.720Z,41.30
2019-01-17T05:15:08.275Z,41.40
2019-01-17T05:17:37.353Z,41.40
2019-01-17T05:20:08.232Z,41.40
2019-01-17T05:22:37.185Z,41.40
2019-01-17T05:25:12.435Z,41.50
2019-01-17T05:27:37.193Z,41.50
2019-01-17T05:30:08.144Z,41.50
2019-01-17T05:32:37.144Z,41.40
2019-01-17T05:35:06.267Z,41.40
2019-01-17T05:37:35.268Z,41.40
2019-01-17T05:40:05.248Z,41.40
2019-01-17T05:42:34.263Z,41.40
2019-01-17T05:45:03.283Z,42.10
2019-01-17T05:47:32.284Z,41.40
2019-01-17T05:50:01.418Z,41.50
2019-01-17T05:52:30.426Z,41.50
2019-01-17T05:54:59.436Z,41.60
2019-01-17T05:57:28.322Z,41.60
2019-01-17T05:59:57.245Z,41.60
2019-01-17T06:02:26.282Z,41.60
2019-01-17T06:04:55.292Z,41.60
2019-01-17T06:07:24.291Z,41.70
2019-01-17T06:09:53.312Z,41.60
2019-01-17T06:12:22.316Z,41.60
2019-01-17T06:14:51.256Z,41.70
2019-01-17T06:17:20.272Z,41.70
2019-01-17T06:19:49.287Z,41.60
2019-01-17T06:22:18.155Z,41.60
2019-01-17T06:24:47.156Z,41.70
2019-01-17T06:27:16.106Z,41.70
2019-01-17T06:29:45.115Z,41.70
2019-01-17T06:32:14.144Z,41.60
2019-01-17T06:34:43.144Z,41.70
2019-01-17T06:37:12.240Z,41.60
2019-01-17T06:39:41.309Z,41.60
2019-01-17T06:42:10.365Z,41.60
2019-01-17T06:44:39.363Z,41.60
2019-01-17T06:47:08.375Z,41.70
2019-01-17T06:49:37.412Z,41.60
2019-01-17T06:52:06.424Z,41.60
2019-01-17T06:54:35.469Z,41.60
2019-01-17T06:57:04.472Z,41.70
2019-01-17T06:59:33.499Z,41.70
2019-01-17T07:02:02.588Z,41.70
2019-01-17T07:04:31.477Z,41.80
2019-01-17T07:07:00.481Z,41.80
2019-01-17T07:09:29.424Z,41.80
2019-01-17T07:11:58.436Z,41.80
2019-01-17T07:14:27.472Z,41.80
2019-01-17T07:16:56.463Z,41.80
2019-01-17T07:19:25.464Z,41.80
2019-01-17T07:21:54.472Z,41.80
2019-01-17T07:24:23.500Z,41.90
2019-01-17T07:26:52.616Z,41.90
2019-01-17T07:29:21.643Z,41.90
2019-01-17T07:31:50.635Z,42.00
2019-01-17T07:34:19.465Z,41.90
2019-01-17T07:36:48.459Z,42.10
2019-01-17T07:39:18.045Z,43.10
2019-01-17T07:41:47.091Z,42.80
2019-01-17T07:44:16.131Z,42.60
2019-01-17T07:46:45.155Z,42.50
2019-01-17T07:49:14.173Z,42.50
2019-01-17T07:51:43.216Z,42.50
2019-01-17T07:54:12.236Z,42.50
2019-01-17T07:56:41.279Z,42.50
2019-01-17T07:59:10.296Z,42.50
2019-01-17T08:01:39.332Z,42.50
2019-01-17T08:04:08.359Z,42.50
2019-01-17T08:06:37.391Z,42.50
2019-01-17T08:09:09.376Z,42.50
2019-01-17T08:11:38.419Z,42.40
2019-01-17T08:14:07.427Z,42.40
2019-01-17T08:16:36.379Z,42.40
2019-01-17T08:19:05.387Z,42.40
2019-01-17T08:21:34.425Z,42.40
2019-01-17T08:24:03.429Z,42.40
2019-01-17T08:26:32.464Z,42.50
2019-01-17T08:29:01.471Z,42.40
2019-01-17T08:31:30.429Z,42.40
2019-01-17T08:33:59.452Z,42.40
2019-01-17T08:36:28.480Z,42.40
2019-01-17T08:38:57.491Z,42.40
2019-01-17T08:41:26.532Z,42.50
2019-01-17T08:43:55.471Z,42.50
2019-01-17T08:46:24.420Z,42.50
2019-01-17T08:48:53.443Z,42.50
2019-01-17T08:51:22.471Z,42.50
2019-01-17T08:53:51.400Z,42.50
2019-01-17T08:56:20.427Z,42.40
2019-01-17T08:58:49.441Z,42.40
2019-01-17T09:01:18.476Z,42.40
2019-01-17T09:03:47.503Z,42.40
2019-01-17T09:06:16.537Z,42.40
2019-01-17T09:08:45.557Z,42.60
2019-01-17T09:11:14.587Z,42.50
2019-01-17T09:13:43.516Z,42.50
2019-01-17T09:16:12.551Z,42.50
2019-01-17T09:18:41.569Z,42.50
2019-01-17T09:21:10.599Z,42.60
2019-01-17T09:23:39.617Z,42.50
2019-01-17T09:26:08.647Z,42.50
2019-01-17T09:28:37.588Z,42.50
2019-01-17T09:31:06.634Z,42.50
2019-01-17T09:33:35.661Z,42.50
2019-01-17T09:36:04.696Z,42.50
2019-01-17T09:38:33.718Z,42.50
2019-01-17T09:41:02.747Z,42.50
2019-01-17T09:43:31.702Z,42.50
2019-01-17T09:46:00.725Z,42.50
2019-01-17T09:48:29.755Z,42.50
2019-01-17T09:50:58.798Z,42.50
2019-01-17T09:53:27.701Z,42.50
2019-01-17T09:55:56.721Z,42.50
2019-01-17T09:58:25.749Z,42.50
2019-01-17T10:00:54.773Z,42.50
2019-01-17T10:03:23.816Z,42.50
2019-01-17T10:05:52.831Z,42.50
2019-01-17T10:08:21.869Z,42.50
2019-01-17T10:10:50.902Z,42.50
2019-01-17T10:13:19.936Z,42.50
2019-01-17T10:16:07.402Z,42.50
2019-01-17T10:19:08.376Z,42.40
2019-01-17T10:22:12.273Z,42.50
2019-01-17T10:25:06.672Z,42.40
2019-01-17T10:28:24.599Z,42.50
2019-01-17T10:31:21.004Z,42.50
2019-01-17T10:34:14.020Z,42.40
2019-01-17T10:37:18.741Z,42.50
2019-01-17T10:40:23.080Z,42.50
2019-01-17T10:43:15.564Z,42.50
2019-01-17T10:46:24.886Z,42.50
2019-01-17T10:49:41.138Z,42.50
2019-01-17T10:52:41.520Z,42.40
2019-01-17T10:56:02.496Z,42.40
2019-01-17T10:58:55.848Z,42.50
2019-01-17T11:02:16.545Z,42.40
2019-01-17T11:05:08.955Z,42.50
2019-01-17T11:08:05.863Z,42.50
2019-01-17T11:11:12.333Z,42.50
2019-01-17T11:14:23.644Z,42.40
2019-01-17T11:17:28.447Z,42.40
2019-01-17T11:20:29.224Z,42.50
2019-01-17T11:23:23.336Z,42.50
2019-01-17T11:26:08.710Z,42.40
2019-01-17T11:29:01.708Z,42.40
2019-01-17T11:32:01.441Z,42.40
2019-01-17T11:35:11.433Z,42.30
2019-01-17T11:38:07.676Z,42.30
2019-01-17T11:41:13.260Z,42.40
2019-01-17T11:44:26.176Z,42.30
2019-01-17T11:47:48.004Z,42.40
2019-01-17T11:51:01.076Z,42.30
2019-01-17T11:54:17.134Z,42.50
2019-01-17T11:57:22.324Z,42.20
2019-01-17T12:00:19.724Z,42.20
2019-01-17T12:03:12.701Z,42.20
2019-01-17T12:05:41.662Z,42.30
2019-01-17T12:08:10.677Z,42.40
2019-01-17T12:10:39.728Z,42.30
2019-01-17T12:13:08.695Z,42.30
2019-01-17T12:15:37.738Z,42.20
2019-01-17T12:18:06.728Z,42.20
2019-01-17T12:20:35.684Z,42.20
2019-01-17T12:23:04.792Z,42.20
2019-01-17T12:25:33.825Z,42.20
2019-01-17T12:28:02.761Z,42.30
2019-01-17T12:30:31.721Z,42.20
2019-01-17T12:33:00.661Z,42.20
2019-01-17T12:35:29.611Z,42.20
2019-01-17T12:37:58.624Z,42.20
2019-01-17T12:40:27.643Z,42.30
2019-01-17T12:42:56.671Z,42.30
2019-01-17T12:45:25.736Z,42.40
2019-01-17T12:47:54.705Z,42.30
2019-01-17T12:50:23.772Z,42.30
2019-01-17T12:52:52.779Z,42.40
2019-01-17T12:55:21.808Z,42.30
2019-01-17T12:57:50.841Z,42.20
2019-01-17T13:00:20.934Z,42.20
2019-01-17T13:02:49.989Z,42.00
2019-01-17T13:05:19.056Z,41.90
2019-01-17T13:07:48.065Z,42.00
2019-01-17T13:10:18.589Z,42.10
2019-01-17T13:12:47.545Z,42.00
2019-01-17T13:15:16.567Z,42.00
2019-01-17T13:17:45.588Z,42.00
2019-01-17T13:20:16.254Z,42.10
2019-01-17T13:22:45.372Z,42.10
2019-01-17T13:25:17.440Z,42.20
2019-01-17T13:27:46.554Z,42.20
2019-01-17T13:30:17.808Z,42.10
2019-01-17T13:32:47.132Z,42.00
2019-01-17T13:35:16.473Z,42.10
2019-01-17T13:37:45.485Z,42.20
2019-01-17T13:40:19.828Z,42.20
2019-01-17T13:42:48.873Z,42.20
2019-01-17T13:45:19.287Z,42.90
2019-01-17T13:47:48.439Z,42.20
2019-01-17T13:50:17.752Z,42.20
2019-01-17T13:52:47.081Z,42.10
2019-01-17T13:55:16.322Z,42.10
2019-01-17T13:57:45.345Z,42.10
2019-01-17T14:00:17.221Z,42.00
2019-01-17T14:02:46.268Z,42.00
2019-01-17T14:05:15.590Z,41.90
2019-01-17T14:07:44.809Z,41.90
2019-01-17T14:10:14.220Z,42.00
2019-01-17T14:12:43.238Z,42.00
2019-01-17T14:15:24.083Z,42.00
2019-01-17T14:17:53.123Z,42.00
2019-01-17T14:20:22.141Z,42.10
2019-01-17T14:22:51.190Z,42.60
2019-01-17T14:25:20.129Z,42.10
2019-01-17T14:27:49.377Z,42.00
2019-01-17T14:30:23.871Z,41.90
2019-01-17T14:32:52.813Z,42.00
2019-01-17T14:35:21.823Z,42.00
2019-01-17T14:37:50.839Z,42.00
2019-01-17T14:40:19.777Z,42.10
2019-01-17T14:42:48.808Z,42.10
2019-01-17T14:45:18.560Z,42.10
2019-01-17T14:47:47.601Z,42.60
2019-01-17T14:50:21.529Z,42.00
2019-01-17T14:52:50.556Z,42.00
2019-01-17T14:55:19.556Z,42.10
2019-01-17T14:57:48.576Z,41.90
2019-01-17T15:00:19.376Z,41.70
2019-01-17T15:02:48.390Z,41.90
2019-01-17T15:05:17.447Z,41.80
2019-01-17T15:07:46.367Z,41.90
2019-01-17T15:10:18.062Z,41.80
2019-01-17T15:12:47.080Z,41.80
2019-01-17T15:15:16.154Z,41.80
2019-01-17T15:17:45.181Z,41.90
2019-01-17T15:20:16.521Z,41.70
2019-01-17T15:22:46.690Z,41.80
2019-01-17T15:25:15.716Z,41.70
2019-01-17T15:27:44.729Z,41.80
2019-01-17T15:30:16.428Z,41.80
2019-01-17T15:32:45.435Z,41.70
2019-01-17T15:35:14.464Z,41.60
2019-01-17T15:37:43.499Z,41.60
2019-01-17T15:40:15.917Z,41.60
2019-01-17T15:42:44.920Z,41.80
2019-01-17T15:45:13.961Z,41.90
2019-01-17T15:47:43.049Z,41.90
2019-01-17T15:50:12.276Z,41.90
2019-01-17T15:52:41.284Z,41.90
2019-01-17T15:55:11.612Z,42.00
2019-01-17T15:57:40.621Z,41.90
2019-01-17T16:00:14.423Z,41.90
2019-01-17T16:02:43.423Z,41.80
2019-01-17T16:05:12.448Z,41.80
2019-01-17T16:07:41.467Z,41.80
2019-01-17T16:10:11.104Z,41.80
2019-01-17T16:12:40.108Z,41.90
2019-01-17T16:15:11.989Z,41.90
2019-01-17T16:17:41.006Z,42.50
2019-01-17T16:20:11.047Z,41.90
2019-01-17T16:22:40.065Z,41.90
2019-01-17T16:25:10.156Z,42.00
2019-01-17T16:27:41.799Z,42.00
2019-01-17T16:30:13.739Z,42.00
2019-01-17T16:32:42.751Z,42.00
2019-01-17T16:35:12.608Z,42.00
2019-01-17T16:37:41.629Z,41.90
2019-01-17T16:40:10.964Z,42.00
2019-01-17T16:42:40.033Z,42.10
2019-01-17T16:45:10.088Z,41.80
2019-01-17T16:47:38.999Z,41.70
2019-01-17T16:50:12.472Z,41.60
2019-01-17T16:52:41.476Z,41.50
2019-01-17T16:55:11.028Z,41.60
2019-01-17T16:57:40.031Z,41.80
2019-01-17T17:00:16.531Z,41.70
2019-01-17T17:02:45.501Z,41.80
2019-01-17T17:05:15.261Z,41.80
2019-01-17T17:07:44.324Z,41.80
2019-01-17T17:10:14.279Z,41.80
2019-01-17T17:12:43.280Z,41.80
2019-01-17T17:15:12.416Z,41.90
2019-01-17T17:17:41.348Z,41.90
2019-01-17T17:20:12.956Z,41.90
2019-01-17T17:22:41.947Z,41.80
2019-01-17T17:25:10.984Z,41.90
2019-01-17T17:27:39.979Z,41.90
2019-01-17T17:30:12.431Z,41.90
2019-01-17T17:32:41.355Z,42.00
2019-01-17T17:35:10.388Z,41.90
2019-01-17T17:37:39.387Z,41.70
2019-01-17T17:40:12.351Z,41.70
2019-01-17T17:42:41.281Z,41.60
2019-01-17T17:45:10.608Z,41.60
2019-01-17T17:47:39.612Z,41.30
2019-01-17T17:50:10.284Z,41.20
2019-01-17T17:52:39.236Z,41.30
2019-01-17T17:55:09.639Z,41.30
2019-01-17T17:57:38.689Z,41.30
2019-01-17T18:00:12.165Z,41.30
2019-01-17T18:02:41.264Z,41.40
2019-01-17T18:05:11.325Z,41.60
2019-01-17T18:07:40.388Z,41.60
2019-01-17T18:10:12.021Z,41.60
2019-01-17T18:12:41.022Z,41.50
2019-01-17T18:15:11.438Z,41.60
2019-01-17T18:17:40.428Z,41.60
2019-01-17T18:20:10.396Z,41.70
2019-01-17T18:22:39.419Z,41.60
2019-01-17T18:25:09.057Z,41.60
2019-01-17T18:27:38.068Z,41.60
2019-01-17T18:30:11.636Z,41.50
2019-01-17T18:32:40.718Z,41.60
2019-01-17T18:35:09.746Z,41.60
2019-01-17T18:37:38.710Z,41.70
2019-01-17T18:40:09.657Z,41.80
2019-01-17T18:42:38.676Z,41.90
2019-01-17T18:45:10.144Z,42.50
2019-01-17T18:47:39.139Z,42.50
2019-01-17T18:50:10.943Z,42.40
2019-01-17T18:52:39.980Z,42.50
2019-01-17T18:55:08.995Z,42.60
2019-01-17T18:57:37.944Z,42.60
2019-01-17T19:00:15.017Z,42.70
2019-01-17T19:02:43.867Z,42.70
2019-01-17T19:05:12.992Z,42.80
2019-01-17T19:07:41.926Z,43.00
2019-01-17T19:10:10.931Z,42.90
2019-01-17T19:12:39.943Z,43.00
2019-01-17T19:15:11.407Z,43.30
2019-01-17T19:17:40.423Z,43.10
2019-01-17T19:20:11.427Z,43.90
2019-01-17T19:22:40.369Z,43.30
2019-01-17T19:25:09.492Z,42.90
2019-01-17T19:27:38.415Z,44.10
2019-01-17T19:30:10.379Z,43.60
2019-01-17T19:32:39.400Z,43.20
2019-01-17T19:35:08.640Z,43.30
2019-01-17T19:37:37.731Z,43.30
2019-01-17T19:40:08.434Z,43.20
2019-01-17T19:42:37.452Z,43.50
2019-01-17T19:45:07.515Z,43.40
2019-01-17T19:47:36.506Z,43.30
2019-01-17T19:50:09.628Z,43.20
2019-01-17T19:52:38.666Z,43.20
2019-01-17T19:55:07.764Z,43.50
2019-01-17T19:57:37.350Z,43.60
2019-01-17T20:00:09.119Z,43.60
2019-01-17T20:02:38.684Z,43.70
2019-01-17T20:05:09.726Z,43.70
2019-01-17T20:07:39.790Z,43.80
2019-01-17T20:10:12.663Z,43.80
2019-01-17T20:12:42.258Z,43.80
2019-01-17T20:15:11.802Z,43.80
2019-01-17T20:17:41.169Z,43.50
2019-01-17T20:20:11.729Z,43.50
2019-01-17T20:22:40.845Z,43.40
2019-01-17T20:25:10.080Z,43.40
2019-01-17T20:27:39.124Z,43.50
2019-01-17T20:30:14.809Z,43.50
2019-01-17T20:32:43.818Z,43.50
2019-01-17T20:35:12.876Z,43.40
2019-01-17T20:37:41.824Z,43.30
2019-01-17T20:40:12.716Z,43.40
2019-01-17T20:42:41.748Z,43.50
2019-01-17T20:45:11.553Z,43.40
2019-01-17T20:47:40.579Z,43.60
2019-01-17T20:50:12.307Z,43.70
2019-01-17T20:52:41.329Z,43.70
2019-01-17T20:55:10.872Z,43.70
2019-01-17T20:57:40.313Z,43.60
2019-01-17T21:00:19.072Z,43.60
2019-01-17T21:02:48.100Z,43.70
2019-01-17T21:05:17.781Z,43.70
2019-01-17T21:07:46.800Z,43.60
2019-01-17T21:10:15.984Z,43.70
2019-01-17T21:12:44.982Z,43.90
2019-01-17T21:15:14.183Z,44.00
2019-01-17T21:17:43.295Z,44.10
2019-01-17T21:20:12.748Z,44.00
2019-01-17T21:22:41.764Z,43.90
2019-01-17T21:25:13.418Z,43.80
2019-01-17T21:27:42.443Z,43.80
2019-01-17T21:30:17.422Z,43.80
2019-01-17T21:32:46.456Z,43.80
2019-01-17T21:35:15.489Z,43.80
2019-01-17T21:37:44.504Z,44.00
2019-01-17T21:40:15.741Z,44.00
2019-01-17T21:42:44.743Z,44.00
2019-01-17T21:45:15.309Z,43.90
2019-01-17T21:47:44.311Z,43.90
2019-01-17T21:50:15.692Z,44.00
2019-01-17T21:52:44.700Z,44.20
2019-01-17T21:55:13.704Z,44.20
2019-01-17T21:57:42.769Z,45.90
2019-01-17T22:00:16.071Z,48.10
2019-01-17T22:02:45.028Z,48.70
2019-01-17T22:05:14.032Z,48.70
2019-01-17T22:07:42.967Z,48.40
2019-01-17T22:10:12.335Z,48.00
2019-01-17T22:12:41.349Z,47.50
2019-01-17T22:15:13.323Z,47.20
2019-01-17T22:17:42.323Z,47.00
2019-01-17T22:20:11.487Z,46.80
2019-01-17T22:22:40.515Z,46.80
2019-01-17T22:25:10.902Z,46.80
2019-01-17T22:27:39.905Z,46.60
2019-01-17T22:30:12.797Z,46.40
2019-01-17T22:32:41.826Z,46.20
2019-01-17T22:35:10.851Z,46.00
2019-01-17T22:37:39.859Z,45.80
2019-01-17T22:40:10.228Z,45.80
2019-01-17T22:42:39.264Z,45.70
2019-01-17T22:45:10.840Z,45.60
2019-01-17T22:47:39.852Z,45.80
2019-01-17T22:50:11.060Z,45.50
2019-01-17T22:52:40.113Z,44.80
2019-01-17T22:55:09.269Z,44.50
2019-01-17T22:57:38.199Z,43.90
2019-01-17T23:00:50.830Z,43.40
2019-01-17T23:03:22.048Z,42.90
2019-01-17T23:05:51.051Z,42.00
2019-01-17T23:08:20.101Z,41.20
2019-01-17T23:10:49.122Z,40.90
2019-01-17T23:13:18.164Z,40.60
2019-01-17T23:15:47.176Z,40.90
2019-01-17T23:18:16.221Z,40.80
2019-01-17T23:20:45.238Z,40.40
2019-01-17T23:23:14.188Z,38.80
2019-01-17T23:25:43.381Z,37.20
2019-01-17T23:28:12.691Z,35.00
2019-01-17T23:30:42.313Z,34.00
2019-01-17T23:33:11.371Z,33.10
2019-01-17T23:35:40.409Z,32.20
2019-01-17T23:38:09.418Z,32.00
2019-01-17T23:40:38.449Z,31.10
2019-01-17T23:43:07.378Z,30.40
2019-01-17T23:45:36.408Z,30.00
2019-01-17T23:48:05.612Z,29.60
2019-01-17T23:50:34.617Z,29.70
2019-01-17T23:53:03.644Z,30.40
2019-01-17T23:55:32.655Z,31.20
2019-01-17T23:58:01.692Z,31.70
